Time;durP1;ratioP1;P1;durP2;ratioP2;P2;SDS_P1;SDS_P2;PMS_P1;PMS_P2;Temp;Humidity;BMP_temperature;BMP_pressure;BME280_temperature;BME280_humidity;BME280_pressure;Samples;Min_cycle;Max_cycle;Signal;HPM_P1;HPM_P2
2021/03/29 00:00:15;;;;;;;8.35;6.78;;;;;;;;;;4947352;28;20019;-66
2021/03/29 00:02:40;;;;;;;9.07;6.80;;;;;;;;;;4954001;28;20501;-66
2021/03/29 00:05:06;;;;;;;12.20;7.53;;;;;;;;;;4952149;29;20033;-66
2021/03/29 00:07:33;;;;;;;9.00;7.25;;;;;;;;;;4954104;28;20015;-66
2021/03/29 00:09:59;;;;;;;9.10;7.65;;;;;;;;;;4951698;29;20463;-66
2021/03/29 00:12:25;;;;;;;10.77;8.88;;;;;;;;;;4951918;28;20023;-67
2021/03/29 00:14:51;;;;;;;11.20;10.10;;;;;;;;;;4953867;28;20371;-67
2021/03/29 00:17:16;;;;;;;10.57;8.20;;;;;;;;;;4951769;28;20035;-66
2021/03/29 00:19:42;;;;;;;14.63;9.38;;;;;;;;;;4954010;28;20090;-67
2021/03/29 00:22:08;;;;;;;13.95;9.85;;;;;;;;;;4954488;28;20038;-67
2021/03/29 00:24:34;;;;;;;10.43;9.25;;;;;;;;;;4953504;28;20042;-67
2021/03/29 00:27:00;;;;;;;10.15;9.13;;;;;;;;;;4954291;28;20027;-67
2021/03/29 00:29:25;;;;;;;7.72;7.03;;;;;;;;;;4953769;28;20442;-67
2021/03/29 00:31:51;;;;;;;24.15;7.20;;;;;;;;;;4954121;28;20110;-67
2021/03/29 00:34:17;;;;;;;13.43;6.43;;;;;;;;;;4953822;28;20030;-67
2021/03/29 00:36:42;;;;;;;10.75;6.78;;;;;;;;;;4950741;28;20031;-66
2021/03/29 00:39:08;;;;;;;12.25;7.18;;;;;;;;;;4953685;28;20046;-66
2021/03/29 00:41:34;;;;;;;6.05;5.20;;;;;;;;;;4953728;28;20123;-67
2021/03/29 00:44:00;;;;;;;6.72;6.03;;;;;;;;;;4953586;28;20027;-67
2021/03/29 00:46:26;;;;;;;10.85;6.57;;;;;;;;;;4953565;28;20027;-67
2021/03/29 00:48:51;;;;;;;10.07;5.50;;;;;;;;;;4953493;28;20370;-67
2021/03/29 00:51:18;;;;;;;7.35;6.10;;;;;;;;;;4952439;29;20378;-67
2021/03/29 00:53:45;;;;;;;7.63;5.22;;;;;;;;;;4953328;28;20055;-67
2021/03/29 00:56:10;;;;;;;10.80;6.10;;;;;;;;;;4953435;28;20028;-67
2021/03/29 00:58:36;;;;;;;5.47;4.32;;;;;;;;;;4945584;28;20045;-67
2021/03/29 01:01:06;;;;;;;9.35;5.65;;;;;;;;;;4948305;28;20035;-66
2021/03/29 01:03:32;;;;;;;6.18;4.85;;;;;;;;;;4952667;29;20050;-66
2021/03/29 01:06:06;;;;;;;12.23;5.60;;;;;;;;;;4953275;28;20110;-66
2021/03/29 01:08:32;;;;;;;4.68;4.15;;;;;;;;;;4951924;28;20043;-65
2021/03/29 01:10:58;;;;;;;6.30;5.18;;;;;;;;;;4951647;28;20110;-66
2021/03/29 01:13:24;;;;;;;6.07;5.47;;;;;;;;;;4941211;28;20051;-66
2021/03/29 01:15:49;;;;;;;4.55;3.45;;;;;;;;;;4949058;28;20024;-65
2021/03/29 01:18:16;;;;;;;15.82;4.72;;;;;;;;;;4953021;28;20453;-66
2021/03/29 01:20:59;;;;;;;9.13;5.50;;;;;;;;;;4951157;28;20039;-66
2021/03/29 01:23:26;;;;;;;8.05;6.65;;;;;;;;;;4952862;28;20027;-65
2021/03/29 01:25:54;;;;;;;6.85;5.75;;;;;;;;;;4948135;28;20027;-65
2021/03/29 01:28:23;;;;;;;12.65;8.27;;;;;;;;;;4945889;28;20118;-66
2021/03/29 01:30:50;;;;;;;7.03;6.32;;;;;;;;;;4951827;29;20024;-66
2021/03/29 01:33:15;;;;;;;13.70;8.05;;;;;;;;;;4949175;29;20109;-65
2021/03/29 01:35:44;;;;;;;9.07;7.15;;;;;;;;;;4951817;28;20159;-66
2021/03/29 01:38:09;;;;;;;12.02;6.90;;;;;;;;;;4952562;28;20031;-66
2021/03/29 01:40:36;;;;;;;11.65;7.10;;;;;;;;;;4949633;28;20033;-66
2021/03/29 01:43:01;;;;;;;16.17;7.05;;;;;;;;;;4950173;28;20354;-65
2021/03/29 01:45:27;;;;;;;7.95;7.22;;;;;;;;;;4949626;28;20103;-66
2021/03/29 01:47:52;;;;;;;6.28;5.68;;;;;;;;;;4948136;28;20045;-66
2021/03/29 01:50:21;;;;;;;8.45;5.97;;;;;;;;;;4949917;28;20395;-66
2021/03/29 01:52:46;;;;;;;12.10;5.72;;;;;;;;;;4952464;28;20033;-66
2021/03/29 01:55:12;;;;;;;7.13;5.07;;;;;;;;;;4951595;28;20023;-65
2021/03/29 01:57:37;;;;;;;10.45;6.47;;;;;;;;;;4949629;28;20032;-66
2021/03/29 02:00:07;;;;;;;13.35;6.15;;;;;;;;;;4952515;28;20019;-66
2021/03/29 02:02:32;;;;;;;5.38;4.20;;;;;;;;;;4949312;28;20051;-66
2021/03/29 02:04:57;;;;;;;12.57;3.28;;;;;;;;;;4951768;29;20114;-66
2021/03/29 02:07:23;;;;;;;6.65;4.40;;;;;;;;;;4951472;28;20110;-66
2021/03/29 02:09:49;;;;;;;5.05;3.72;;;;;;;;;;4951778;28;20493;-66
2021/03/29 02:12:14;;;;;;;4.10;3.28;;;;;;;;;;4951758;28;20089;-66
2021/03/29 02:14:40;;;;;;;8.00;3.72;;;;;;;;;;4952516;28;20350;-66
2021/03/29 02:17:08;;;;;;;6.50;3.95;;;;;;;;;;4950196;28;20470;-71
2021/03/29 02:19:34;;;;;;;7.03;5.15;;;;;;;;;;4953681;28;20382;-71
2021/03/29 02:22:00;;;;;;;6.43;5.18;;;;;;;;;;4954308;28;20035;-71
2021/03/29 02:24:25;;;;;;;9.93;5.93;;;;;;;;;;4951611;28;20452;-71
2021/03/29 02:26:51;;;;;;;5.88;5.00;;;;;;;;;;4955053;28;20037;-71
2021/03/29 02:29:18;;;;;;;5.53;4.20;;;;;;;;;;4954424;28;20026;-71
2021/03/29 02:31:44;;;;;;;8.13;5.03;;;;;;;;;;4955935;28;20455;-71
2021/03/29 02:34:09;;;;;;;4.38;3.53;;;;;;;;;;4953693;29;20031;-70
2021/03/29 02:36:35;;;;;;;8.02;4.97;;;;;;;;;;4957469;28;20023;-71
2021/03/29 02:39:00;;;;;;;8.93;5.82;;;;;;;;;;4952292;28;20455;-65
2021/03/29 02:41:27;;;;;;;6.65;5.93;;;;;;;;;;4951380;28;20475;-65
2021/03/29 02:43:53;;;;;;;7.63;5.30;;;;;;;;;;4955623;28;20074;-64
2021/03/29 02:46:21;;;;;;;5.28;4.60;;;;;;;;;;4955527;28;20030;-64
2021/03/29 02:48:48;;;;;;;6.85;3.97;;;;;;;;;;4955556;28;20046;-64
2021/03/29 02:51:15;;;;;;;5.38;4.68;;;;;;;;;;4955476;28;20034;-64
2021/03/29 02:53:45;;;;;;;5.65;4.18;;;;;;;;;;4955485;28;20030;-64
2021/03/29 02:56:14;;;;;;;6.78;4.80;;;;;;;;;;4955371;28;20035;-64
2021/03/29 02:58:41;;;;;;;6.82;5.13;;;;;;;;;;4951391;28;20430;-65
2021/03/29 03:01:11;;;;;;;7.75;3.42;;;;;;;;;;4955476;28;20110;-65
2021/03/29 03:03:37;;;;;;;5.15;3.63;;;;;;;;;;4948344;28;20047;-64
2021/03/29 03:06:03;;;;;;;6.68;4.75;;;;;;;;;;4954017;29;20035;-65
2021/03/29 03:08:29;;;;;;;5.85;4.05;;;;;;;;;;4955345;28;20034;-64
2021/03/29 03:10:54;;;;;;;8.35;5.05;;;;;;;;;;4953881;29;20023;-65
2021/03/29 03:13:20;;;;;;;5.20;4.47;;;;;;;;;;4955107;28;20490;-64
2021/03/29 03:15:46;;;;;;;10.05;6.65;;;;;;;;;;4955163;28;20089;-64
2021/03/29 03:18:11;;;;;;;6.00;5.43;;;;;;;;;;4955159;28;20023;-65
2021/03/29 03:20:38;;;;;;;5.72;4.88;;;;;;;;;;4954875;28;20027;-64
2021/03/29 03:23:05;;;;;;;8.38;4.45;;;;;;;;;;4955145;28;20106;-64
2021/03/29 03:25:35;;;;;;;8.45;5.72;;;;;;;;;;4954610;28;20019;-64
2021/03/29 03:28:01;;;;;;;6.10;4.88;;;;;;;;;;4955085;28;20023;-65
2021/03/29 03:30:27;;;;;;;6.03;4.43;;;;;;;;;;4954373;28;20031;-65
2021/03/29 03:32:53;;;;;;;5.88;4.75;;;;;;;;;;4954944;28;20024;-64
2021/03/29 03:35:20;;;;;;;5.20;3.80;;;;;;;;;;4953363;28;20046;-64
2021/03/29 03:37:48;;;;;;;4.43;3.92;;;;;;;;;;4954614;28;20459;-64
2021/03/29 03:40:13;;;;;;;5.82;4.03;;;;;;;;;;4949328;28;20024;-64
2021/03/29 03:42:39;;;;;;;4.97;3.15;;;;;;;;;;4954668;28;20035;-65
2021/03/29 03:45:05;;;;;;;4.78;3.17;;;;;;;;;;4954598;28;20048;-65
2021/03/29 03:47:31;;;;;;;5.55;3.58;;;;;;;;;;4954342;28;20032;-65
2021/03/29 03:49:57;;;;;;;5.18;3.40;;;;;;;;;;4954670;28;20038;-65
2021/03/29 03:52:22;;;;;;;12.07;3.97;;;;;;;;;;4954381;28;20136;-65
2021/03/29 03:54:48;;;;;;;7.63;3.28;;;;;;;;;;4954489;28;20082;-65
2021/03/29 03:57:13;;;;;;;4.32;3.92;;;;;;;;;;4954493;28;20073;-67
2021/03/29 03:59:40;;;;;;;5.32;3.25;;;;;;;;;;4954258;28;20030;-67
2021/03/29 04:02:06;;;;;;;6.43;2.75;;;;;;;;;;4954379;28;20058;-67
2021/03/29 04:04:32;;;;;;;5.43;3.15;;;;;;;;;;4954092;28;20023;-67
2021/03/29 04:06:58;;;;;;;6.95;2.95;;;;;;;;;;4954617;28;20032;-67
2021/03/29 04:09:31;;;;;;;3.67;2.95;;;;;;;;;;4954337;28;20031;-67
2021/03/29 04:11:57;;;;;;;6.07;2.88;;;;;;;;;;4954380;28;20233;-67
2021/03/29 04:14:22;;;;;;;3.33;2.95;;;;;;;;;;4954014;28;20109;-67
2021/03/29 04:16:47;;;;;;;6.68;3.80;;;;;;;;;;4953715;28;20027;-66
2021/03/29 04:19:12;;;;;;;4.70;3.13;;;;;;;;;;4953505;28;20378;-66
2021/03/29 04:21:38;;;;;;;6.13;3.05;;;;;;;;;;4953688;28;20135;-66
2021/03/29 04:24:03;;;;;;;4.75;3.60;;;;;;;;;;4952837;28;20031;-66
2021/03/29 04:26:29;;;;;;;3.88;2.78;;;;;;;;;;4947960;28;20032;-66
2021/03/29 04:28:54;;;;;;;6.63;4.63;;;;;;;;;;4949382;28;20034;-66
2021/03/29 04:31:19;;;;;;;12.88;3.97;;;;;;;;;;4951160;28;20034;-66
2021/03/29 04:33:45;;;;;;;5.43;3.42;;;;;;;;;;4950178;28;20113;-66
2021/03/29 04:36:10;;;;;;;9.73;2.83;;;;;;;;;;4949511;28;20031;-67
2021/03/29 04:38:35;;;;;;;7.85;3.13;;;;;;;;;;4951124;29;20058;-66
2021/03/29 04:41:00;;;;;;;3.95;2.90;;;;;;;;;;4941744;29;20053;-66
2021/03/29 04:43:26;;;;;;;5.03;3.72;;;;;;;;;;4950534;28;20074;-65
2021/03/29 04:45:52;;;;;;;5.50;3.47;;;;;;;;;;4940320;28;20549;-66
2021/03/29 04:48:17;;;;;;;4.72;3.40;;;;;;;;;;4953461;28;20027;-65
2021/03/29 04:50:43;;;;;;;4.75;4.10;;;;;;;;;;4953322;28;20050;-65
2021/03/29 04:53:08;;;;;;;7.97;3.22;;;;;;;;;;4945541;28;20106;-65
2021/03/29 04:55:33;;;;;;;21.55;5.50;;;;;;;;;;4948487;28;20099;-65
2021/03/29 04:57:59;;;;;;;11.48;4.80;;;;;;;;;;4951107;28;20023;-65
2021/03/29 05:00:24;;;;;;;7.68;4.68;;;;;;;;;;4950648;29;20037;-65
2021/03/29 05:02:49;;;;;;;4.90;3.60;;;;;;;;;;4952996;29;20052;-65
2021/03/29 05:05:15;;;;;;;7.57;3.50;;;;;;;;;;4952779;28;20031;-65
2021/03/29 05:07:40;;;;;;;3.92;2.83;;;;;;;;;;4953169;28;20466;-65
2021/03/29 05:10:09;;;;;;;14.48;10.60;;;;;;;;;;4953167;28;20024;-65
2021/03/29 05:12:35;;;;;;;11.20;4.07;;;;;;;;;;4951785;29;20023;-64
2021/03/29 05:15:00;;;;;;;5.75;5.00;;;;;;;;;;4950179;28;20069;-66
2021/03/29 05:17:25;;;;;;;6.18;4.53;;;;;;;;;;4952770;28;20102;-65
2021/03/29 05:19:51;;;;;;;9.05;4.25;;;;;;;;;;4950286;28;20070;-65
2021/03/29 05:22:16;;;;;;;5.10;4.57;;;;;;;;;;4951403;29;20032;-65
2021/03/29 05:24:41;;;;;;;6.45;3.90;;;;;;;;;;4952822;28;20119;-65
2021/03/29 05:27:07;;;;;;;10.25;5.60;;;;;;;;;;4952611;28;20475;-65
2021/03/29 05:29:43;;;;;;;12.10;4.63;;;;;;;;;;4952483;28;20016;-65
2021/03/29 05:32:16;;;;;;;7.55;4.10;;;;;;;;;;4952868;28;20031;-65
2021/03/29 05:34:42;;;;;;;11.90;4.25;;;;;;;;;;4947199;28;20537;-65
2021/03/29 05:37:07;;;;;;;4.20;3.20;;;;;;;;;;4949815;28;20062;-64
2021/03/29 05:39:33;;;;;;;6.20;5.03;;;;;;;;;;4952512;28;20078;-64
2021/03/29 05:41:58;;;;;;;9.27;5.32;;;;;;;;;;4952653;28;20278;-64
2021/03/29 05:44:24;;;;;;;11.20;4.57;;;;;;;;;;4951031;28;20400;-64
2021/03/29 05:46:50;;;;;;;5.50;4.30;;;;;;;;;;4949755;28;20487;-65
2021/03/29 05:49:15;;;;;;;3.60;2.67;;;;;;;;;;4952169;28;20053;-64
2021/03/29 05:51:40;;;;;;;4.88;3.75;;;;;;;;;;4945056;28;20023;-64
2021/03/29 05:54:06;;;;;;;7.07;4.20;;;;;;;;;;4944907;29;20024;-64
2021/03/29 05:56:37;;;;;;;5.63;4.95;;;;;;;;;;4951754;28;20437;-64
2021/03/29 06:01:42;;;;;;;19.67;11.93;;;;;;;;;;4951264;28;20394;-64
2021/03/29 06:04:07;;;;;;;21.70;15.02;;;;;;;;;;4956646;28;20386;-64
2021/03/29 06:06:33;;;;;;;42.97;19.23;;;;;;;;;;4954091;28;20023;-64
2021/03/29 06:08:58;;;;;;;24.00;14.82;;;;;;;;;;4947703;29;20043;-64
2021/03/29 06:11:25;;;;;;;28.35;16.75;;;;;;;;;;4956459;28;20030;-65
2021/03/29 06:14:09;;;;;;;77.68;27.27;;;;;;;;;;4955010;29;20034;-67
2021/03/29 06:16:53;;;;;;;43.75;28.15;;;;;;;;;;4955832;29;20038;-67
2021/03/29 06:19:35;;;;;;;61.10;40.95;;;;;;;;;;4957550;29;20412;-71
2021/03/29 06:22:10;;;;;;;16.23;14.15;;;;;;;;;;4947497;29;20070;-70
2021/03/29 06:24:54;;;;;;;24.33;14.95;;;;;;;;;;4953692;29;20391;-72
2021/03/29 06:27:21;;;;;;;52.13;23.80;;;;;;;;;;4951913;29;20062;-74
2021/03/29 06:29:46;;;;;;;21.67;18.58;;;;;;;;;;4930041;29;20038;-66
2021/03/29 06:32:16;;;;;;;23.67;20.20;;;;;;;;;;4949764;29;20027;-67
2021/03/29 06:34:41;;;;;;;56.47;41.28;;;;;;;;;;4952259;28;20019;-66
2021/03/29 06:37:07;;;;;;;42.97;37.65;;;;;;;;;;4949558;28;20097;-66
2021/03/29 06:39:36;;;;;;;56.35;43.85;;;;;;;;;;4950907;28;20034;-67
2021/03/29 06:42:02;;;;;;;62.30;53.65;;;;;;;;;;4947132;28;20031;-64
2021/03/29 06:44:30;;;;;;;73.35;63.33;;;;;;;;;;4950567;28;20471;-64
2021/03/29 06:47:15;;;;;;;70.80;53.38;;;;;;;;;;4954492;28;20048;-64
2021/03/29 06:49:44;;;;;;;65.20;49.92;;;;;;;;;;4953111;28;20046;-64
2021/03/29 06:52:23;;;;;;;57.00;43.35;;;;;;;;;;4952975;28;20027;-64
2021/03/29 06:54:48;;;;;;;52.53;45.60;;;;;;;;;;4950190;28;20086;-64
2021/03/29 06:57:25;;;;;;;28.33;23.40;;;;;;;;;;4953968;28;20031;-68
2021/03/29 06:59:50;;;;;;;51.13;44.17;;;;;;;;;;4955256;28;20451;-67
2021/03/29 07:02:15;;;;;;;56.42;42.40;;;;;;;;;;4952721;28;20062;-67
2021/03/29 07:04:41;;;;;;;63.65;46.28;;;;;;;;;;4953750;29;20106;-67
2021/03/29 07:07:06;;;;;;;48.30;41.25;;;;;;;;;;4955248;28;20042;-67
2021/03/29 07:09:37;;;;;;;50.63;40.05;;;;;;;;;;4949122;28;20157;-67
2021/03/29 07:12:05;;;;;;;37.42;32.95;;;;;;;;;;4955706;28;20057;-67
2021/03/29 07:14:31;;;;;;;47.28;28.45;;;;;;;;;;4954721;28;20072;-67
2021/03/29 07:16:58;;;;;;;37.90;30.92;;;;;;;;;;4955489;28;20055;-67
2021/03/29 07:19:24;;;;;;;40.63;30.88;;;;;;;;;;4952475;28;20106;-67
2021/03/29 07:21:49;;;;;;;37.03;26.13;;;;;;;;;;4952537;29;20160;-67
2021/03/29 07:24:15;;;;;;;26.08;20.60;;;;;;;;;;4954887;28;20059;-67
2021/03/29 07:26:46;;;;;;;25.63;18.77;;;;;;;;;;4953549;28;20027;-68
2021/03/29 07:29:11;;;;;;;;;;;;;;;;;;4951704;29;20102;-68
2021/03/29 07:31:41;;;;;;;24.02;16.02;;;;;;;;;;4955535;28;20005;-72
2021/03/29 07:34:07;;;;;;;18.60;16.30;;;;;;;;;;4953144;28;20346;-72
2021/03/29 07:36:46;;;;;;;57.90;28.55;;;;;;;;;;4952054;29;20035;-72
2021/03/29 07:39:12;;;;;;;49.53;23.13;;;;;;;;;;4949406;29;20023;-72
2021/03/29 07:41:37;;;;;;;62.78;30.15;;;;;;;;;;4952450;28;20114;-72
2021/03/29 07:44:12;;;;;;;65.63;29.75;;;;;;;;;;4955398;28;20099;-72
2021/03/29 07:46:38;;;;;;;44.03;33.13;;;;;;;;;;4950967;28;20027;-72
2021/03/29 07:49:04;;;;;;;50.35;34.38;;;;;;;;;;4953818;28;20074;-71
2021/03/29 07:51:29;;;;;;;71.50;36.00;;;;;;;;;;4943224;28;20084;-71
2021/03/29 07:54:00;;;;;;;60.28;33.83;;;;;;;;;;4949474;29;20106;-71
2021/03/29 07:56:34;;;;;;;66.60;29.60;;;;;;;;;;4954833;28;20055;-71
2021/03/29 07:59:02;;;;;;;51.92;30.75;;;;;;;;;;4940872;29;20477;-71
2021/03/29 08:01:27;;;;;;;56.05;35.10;;;;;;;;;;4950036;29;20047;-72
2021/03/29 08:03:54;;;;;;;63.72;33.35;;;;;;;;;;4951990;28;20023;-71
2021/03/29 08:06:35;;;;;;;50.92;34.17;;;;;;;;;;4951860;29;20104;-71
2021/03/29 08:09:01;;;;;;;55.90;36.88;;;;;;;;;;4951690;28;20102;-71
2021/03/29 08:11:46;;;;;;;55.08;37.85;;;;;;;;;;4939484;29;20528;-71
2021/03/29 08:14:29;;;;;;;39.03;31.48;;;;;;;;;;4946363;29;20534;-71
2021/03/29 08:16:55;;;;;;;40.30;31.52;;;;;;;;;;4942516;28;20494;-71
2021/03/29 08:19:21;;;;;;;40.38;32.55;;;;;;;;;;4951572;29;20019;-72
2021/03/29 08:21:46;;;;;;;45.22;32.08;;;;;;;;;;4953080;28;20060;-71
2021/03/29 08:24:19;;;;;;;39.67;30.10;;;;;;;;;;4952982;29;20425;-71
2021/03/29 08:26:45;;;;;;;31.83;21.85;;;;;;;;;;4947228;29;20110;-71
2021/03/29 08:29:10;;;;;;;24.77;21.35;;;;;;;;;;4954384;28;20106;-71
2021/03/29 08:31:56;;;;;;;43.08;22.70;;;;;;;;;;4953467;28;20063;-71
2021/03/29 08:34:21;;;;;;;37.38;20.65;;;;;;;;;;4939848;29;20031;-71
2021/03/29 08:36:47;;;;;;;48.60;24.98;;;;;;;;;;4947227;29;20395;-71
2021/03/29 08:39:12;;;;;;;23.70;17.30;;;;;;;;;;4947620;28;20375;-72
2021/03/29 08:41:37;;;;;;;16.58;13.65;;;;;;;;;;4941864;28;20039;-71
2021/03/29 08:44:03;;;;;;;19.30;15.45;;;;;;;;;;4950870;28;20034;-71
2021/03/29 08:46:30;;;;;;;16.33;12.60;;;;;;;;;;4946665;28;20035;-71
2021/03/29 08:48:55;;;;;;;18.10;11.38;;;;;;;;;;4953926;28;20051;-72
2021/03/29 08:51:21;;;;;;;12.52;11.27;;;;;;;;;;4951011;28;20066;-72
2021/03/29 08:54:02;;;;;;;14.48;9.23;;;;;;;;;;4942215;28;20028;-72
2021/03/29 08:56:44;;;;;;;9.35;8.52;;;;;;;;;;4950342;28;20027;-71
2021/03/29 08:59:10;;;;;;;9.27;8.05;;;;;;;;;;4935284;29;20040;-71
2021/03/29 09:01:35;;;;;;;12.38;8.18;;;;;;;;;;4935844;29;20084;-71
2021/03/29 09:04:04;;;;;;;11.98;7.78;;;;;;;;;;4943467;29;20019;-71
2021/03/29 09:06:31;;;;;;;13.30;8.73;;;;;;;;;;4949228;29;20031;-71
2021/03/29 09:08:57;;;;;;;9.25;7.00;;;;;;;;;;4930526;29;20019;-71
2021/03/29 09:11:22;;;;;;;14.35;7.45;;;;;;;;;;4953251;28;20046;-71
2021/03/29 09:13:52;;;;;;;2.83;1.67;;;;;;;;;;4947502;28;20427;-71
2021/03/29 09:16:21;;;;;;;10.65;3.13;;;;;;;;;;4950198;28;20038;-71
2021/03/29 09:18:46;;;;;;;11.43;5.88;;;;;;;;;;4950146;28;20038;-71
2021/03/29 09:21:12;;;;;;;5.05;3.45;;;;;;;;;;4948953;28;20023;-71
2021/03/29 09:23:37;;;;;;;3.90;1.88;;;;;;;;;;4952713;28;20063;-71
2021/03/29 09:26:03;;;;;;;1.38;0.88;;;;;;;;;;4948953;28;20070;-71
2021/03/29 09:28:45;;;;;;;12.18;1.90;;;;;;;;;;4944896;29;20098;-71
2021/03/29 09:31:14;;;;;;;3.25;1.95;;;;;;;;;;4950143;28;20047;-71
2021/03/29 09:33:43;;;;;;;11.00;1.63;;;;;;;;;;4938874;29;20073;-71
2021/03/29 09:36:09;;;;;;;4.13;1.60;;;;;;;;;;4953086;28;20134;-71
2021/03/29 09:38:36;;;;;;;2.20;0.68;;;;;;;;;;4952525;28;20447;-71
2021/03/29 09:41:12;;;;;;;5.13;2.17;;;;;;;;;;4954202;28;20038;-72
2021/03/29 09:43:40;;;;;;;11.77;1.55;;;;;;;;;;4954135;28;20062;-72
2021/03/29 09:46:06;;;;;;;5.53;1.80;;;;;;;;;;4944513;28;20047;-72
2021/03/29 09:48:31;;;;;;;2.78;1.35;;;;;;;;;;4953001;29;20023;-72
2021/03/29 09:50:58;;;;;;;14.80;2.40;;;;;;;;;;4954342;28;20430;-72
2021/03/29 09:53:23;;;;;;;2.55;0.70;;;;;;;;;;4951058;28;20452;-72
2021/03/29 09:55:51;;;;;;;2.80;1.35;;;;;;;;;;4952004;29;20062;-72
2021/03/29 09:58:30;;;;;;;7.13;2.20;;;;;;;;;;4953806;28;20031;-72
2021/03/29 10:01:00;;;;;;;3.60;2.05;;;;;;;;;;4954499;28;20077;-72
2021/03/29 10:03:26;;;;;;;1.73;1.13;;;;;;;;;;4950818;28;20054;-72
2021/03/29 10:05:51;;;;;;;7.15;2.47;;;;;;;;;;4954074;28;20315;-73
2021/03/29 10:08:24;;;;;;;7.50;1.83;;;;;;;;;;4944675;28;20020;-73
2021/03/29 10:10:57;;;;;;;3.10;1.25;;;;;;;;;;4953960;28;20031;-72
2021/03/29 10:13:30;;;;;;;4.78;1.60;;;;;;;;;;4953820;28;20030;-72
2021/03/29 10:15:56;;;;;;;6.97;1.63;;;;;;;;;;4954091;28;20175;-72
2021/03/29 10:18:21;;;;;;;14.13;3.22;;;;;;;;;;4953900;28;20123;-72
2021/03/29 10:20:46;;;;;;;6.95;2.25;;;;;;;;;;4953906;28;20024;-73
2021/03/29 10:23:28;;;;;;;5.63;1.95;;;;;;;;;;4953928;28;20490;-72
2021/03/29 10:26:12;;;;;;;3.05;1.33;;;;;;;;;;4953309;28;20035;-73
2021/03/29 10:28:37;;;;;;;7.00;2.42;;;;;;;;;;4950703;28;20035;-73
2021/03/29 10:31:03;;;;;;;5.85;1.77;;;;;;;;;;4954296;28;20031;-73
2021/03/29 10:33:28;;;;;;;7.28;1.95;;;;;;;;;;4953500;28;20019;-73
2021/03/29 10:35:53;;;;;;;2.13;1.55;;;;;;;;;;4951154;28;20036;-73
2021/03/29 10:38:19;;;;;;;14.45;1.35;;;;;;;;;;4953798;28;20019;-72
2021/03/29 10:40:44;;;;;;;1.13;0.75;;;;;;;;;;4951327;28;20459;-73
2021/03/29 10:43:10;;;;;;;9.60;2.08;;;;;;;;;;4944539;29;20036;-71
2021/03/29 10:45:35;;;;;;;4.35;1.38;;;;;;;;;;4956611;29;20110;-72
2021/03/29 10:48:00;;;;;;;10.27;2.42;;;;;;;;;;4957195;28;20054;-72
2021/03/29 10:50:25;;;;;;;14.48;3.13;;;;;;;;;;4957043;28;20110;-72
2021/03/29 10:52:51;;;;;;;18.80;3.15;;;;;;;;;;4948375;29;20182;-73
2021/03/29 10:55:16;;;;;;;7.28;2.30;;;;;;;;;;4951212;28;20078;-72
2021/03/29 10:57:42;;;;;;;6.22;2.40;;;;;;;;;;4954420;28;20027;-72
2021/03/29 11:00:07;;;;;;;2.95;1.45;;;;;;;;;;4957036;28;20046;-71
2021/03/29 11:02:33;;;;;;;3.85;2.53;;;;;;;;;;4950079;28;20047;-72
2021/03/29 11:04:58;;;;;;;9.60;1.83;;;;;;;;;;4956864;28;20106;-73
2021/03/29 11:07:23;;;;;;;6.50;3.42;;;;;;;;;;4950280;28;20093;-73
2021/03/29 11:09:48;;;;;;;11.05;1.52;;;;;;;;;;4953813;28;20078;-72
2021/03/29 11:12:14;;;;;;;11.30;2.40;;;;;;;;;;4954312;28;20028;-72
2021/03/29 11:14:39;;;;;;;5.07;2.00;;;;;;;;;;4956406;29;20031;-73
2021/03/29 11:17:05;;;;;;;6.15;2.10;;;;;;;;;;4957061;28;20055;-72
2021/03/29 11:19:30;;;;;;;15.63;4.25;;;;;;;;;;4953671;28;20023;-73
2021/03/29 11:21:56;;;;;;;8.15;2.47;;;;;;;;;;4956744;28;20079;-72
2021/03/29 11:24:21;;;;;;;8.02;2.15;;;;;;;;;;4956490;28;20023;-72
2021/03/29 11:26:46;;;;;;;8.55;4.22;;;;;;;;;;4950939;28;20023;-72
2021/03/29 11:29:12;;;;;;;14.02;3.95;;;;;;;;;;4946066;28;20020;-72
2021/03/29 11:31:40;;;;;;;8.07;3.63;;;;;;;;;;4955758;29;20059;-73
2021/03/29 11:34:05;;;;;;;8.15;3.38;;;;;;;;;;4956284;28;20032;-73
2021/03/29 11:36:30;;;;;;;14.40;2.75;;;;;;;;;;4944359;28;20035;-74
2021/03/29 11:38:56;;;;;;;19.05;5.10;;;;;;;;;;4956231;28;20386;-72
2021/03/29 11:41:22;;;;;;;4.78;2.88;;;;;;;;;;4956373;28;20035;-73
2021/03/29 11:43:47;;;;;;;17.95;4.07;;;;;;;;;;4955518;28;20486;-72
2021/03/29 11:46:13;;;;;;;20.05;4.10;;;;;;;;;;4956519;28;20031;-72
2021/03/29 11:48:38;;;;;;;8.15;3.67;;;;;;;;;;4949540;28;20526;-73
2021/03/29 11:51:03;;;;;;;8.32;3.42;;;;;;;;;;4951584;29;20059;-71
2021/03/29 11:53:29;;;;;;;8.00;3.25;;;;;;;;;;4951575;28;20035;-72
2021/03/29 11:55:54;;;;;;;12.75;4.22;;;;;;;;;;4953464;28;20411;-71
2021/03/29 11:58:20;;;;;;;3.10;1.55;;;;;;;;;;4953577;28;20027;-72
2021/03/29 12:05:46;;;;;;;9.98;3.80;;;;;;;;;;4951500;29;20104;-72
2021/03/29 12:13:26;;;;;;;13.52;4.55;;;;;;;;;;4926326;28;20046;-72
2021/03/29 12:15:53;;;;;;;33.53;4.15;;;;;;;;;;4948221;28;20019;-72
2021/03/29 12:18:34;;;;;;;18.15;4.57;;;;;;;;;;4954111;28;20019;-71
2021/03/29 12:21:03;;;;;;;5.68;3.33;;;;;;;;;;4954219;28;20031;-72
2021/03/29 12:23:29;;;;;;;13.82;4.53;;;;;;;;;;4952290;28;20480;-72
2021/03/29 12:25:55;;;;;;;11.73;3.15;;;;;;;;;;4950930;28;20102;-72
2021/03/29 12:28:22;;;;;;;15.85;4.85;;;;;;;;;;4953667;28;20042;-73
2021/03/29 12:30:47;;;;;;;18.38;4.25;;;;;;;;;;4951776;29;20027;-72
2021/03/29 12:33:13;;;;;;;13.38;4.45;;;;;;;;;;4953828;28;20097;-72
2021/03/29 12:35:38;;;;;;;9.02;3.38;;;;;;;;;;4953438;28;20439;-72
2021/03/29 12:38:04;;;;;;;11.75;3.92;;;;;;;;;;4953585;28;20477;-72
2021/03/29 12:40:32;;;;;;;14.82;4.35;;;;;;;;;;4952761;28;20486;-73
2021/03/29 12:45:27;;;;;;;11.88;4.18;;;;;;;;;;4947506;28;20102;-72
2021/03/29 12:47:52;;;;;;;18.85;3.60;;;;;;;;;;4953045;28;20542;-73
2021/03/29 12:50:19;;;;;;;19.38;3.78;;;;;;;;;;4949537;29;20022;-72
2021/03/29 12:52:46;;;;;;;12.63;4.00;;;;;;;;;;4950500;28;20099;-73
2021/03/29 12:55:14;;;;;;;13.50;3.53;;;;;;;;;;4953510;28;20426;-72
2021/03/29 12:57:39;;;;;;;20.73;4.18;;;;;;;;;;4950349;28;20450;-73
2021/03/29 13:00:06;;;;;;;19.65;4.63;;;;;;;;;;4950390;28;20019;-72
2021/03/29 13:02:32;;;;;;;18.75;3.13;;;;;;;;;;4951657;29;20477;-73
2021/03/29 13:04:58;;;;;;;13.73;5.70;;;;;;;;;;4949850;28;20028;-73
2021/03/29 13:07:31;;;;;;;7.90;3.05;;;;;;;;;;4949733;28;20039;-72
2021/03/29 13:12:24;;;;;;;13.18;4.13;;;;;;;;;;4953549;28;20034;-72
2021/03/29 13:14:49;;;;;;;13.52;3.28;;;;;;;;;;4952967;28;20035;-73
2021/03/29 13:17:15;;;;;;;25.38;5.97;;;;;;;;;;4942025;28;20023;-73
2021/03/29 13:19:40;;;;;;;13.38;5.30;;;;;;;;;;4953175;28;20019;-72
2021/03/29 13:22:06;;;;;;;16.60;4.60;;;;;;;;;;4948328;28;20034;-66
2021/03/29 13:24:32;;;;;;;14.63;5.53;;;;;;;;;;4946967;28;20059;-64
2021/03/29 13:26:57;;;;;;;20.08;5.97;;;;;;;;;;4940592;29;20062;-68
2021/03/29 13:29:22;;;;;;;15.25;4.50;;;;;;;;;;4952422;28;20019;-68
2021/03/29 13:31:48;;;;;;;11.13;5.05;;;;;;;;;;4951786;28;20458;-66
2021/03/29 13:34:13;;;;;;;10.35;5.07;;;;;;;;;;4941948;28;20222;-66
2021/03/29 13:36:38;;;;;;;31.58;5.80;;;;;;;;;;4940076;29;20035;-63
2021/03/29 13:39:04;;;;;;;13.95;3.75;;;;;;;;;;4941578;28;20030;-67
2021/03/29 13:41:31;;;;;;;7.75;2.67;;;;;;;;;;4941972;29;20056;-72
2021/03/29 13:43:56;;;;;;;19.75;4.60;;;;;;;;;;4937682;29;20406;-64
2021/03/29 13:46:21;;;;;;;30.25;8.93;;;;;;;;;;4939219;29;20028;-74
2021/03/29 13:48:49;;;;;;;24.20;4.35;;;;;;;;;;4943113;28;20098;-73
2021/03/29 13:51:14;;;;;;;9.27;4.50;;;;;;;;;;4937780;29;20024;-72
2021/03/29 13:53:58;;;;;;;13.23;5.40;;;;;;;;;;4943039;29;20030;-65
2021/03/29 13:56:23;;;;;;;17.50;5.53;;;;;;;;;;4950213;29;20024;-71
2021/03/29 13:58:48;;;;;;;16.45;4.50;;;;;;;;;;4945825;28;20031;-71
2021/03/29 14:01:14;;;;;;;7.55;3.75;;;;;;;;;;4950732;28;20031;-70
2021/03/29 14:03:41;;;;;;;11.38;4.35;;;;;;;;;;4949209;29;20036;-65
2021/03/29 14:06:06;;;;;;;12.05;4.18;;;;;;;;;;4949415;28;20043;-65
2021/03/29 14:08:31;;;;;;;15.05;5.93;;;;;;;;;;4952178;29;20027;-65
2021/03/29 14:10:57;;;;;;;8.57;5.15;;;;;;;;;;4954064;28;20107;-65
2021/03/29 14:13:22;;;;;;;7.28;2.95;;;;;;;;;;4951674;28;20055;-65
2021/03/29 14:15:49;;;;;;;21.38;5.25;;;;;;;;;;4944546;29;20032;-68
2021/03/29 14:18:14;;;;;;;12.85;4.85;;;;;;;;;;4952610;28;20027;-68
2021/03/29 14:20:40;;;;;;;10.30;4.57;;;;;;;;;;4950455;29;20394;-68
2021/03/29 14:23:05;;;;;;;12.07;4.90;;;;;;;;;;4955656;28;20030;-67
2021/03/29 14:25:31;;;;;;;16.48;5.32;;;;;;;;;;4955738;28;20067;-67
2021/03/29 14:27:56;;;;;;;28.88;4.85;;;;;;;;;;4956244;28;20019;-65
2021/03/29 14:30:22;;;;;;;12.70;4.93;;;;;;;;;;4955729;28;20115;-65
2021/03/29 14:32:48;;;;;;;13.75;4.53;;;;;;;;;;4950392;28;20633;-67
2021/03/29 14:38:10;;;;;;;11.75;4.15;;;;;;;;;;4956085;29;20082;-67
2021/03/29 14:43:14;;;;;;;15.80;6.50;;;;;;;;;;4956071;28;20027;-67
2021/03/29 14:45:39;;;;;;;22.55;6.63;;;;;;;;;;4952363;29;20123;-67
2021/03/29 14:48:05;;;;;;;12.35;3.85;;;;;;;;;;4952257;28;20107;-67
2021/03/29 14:50:30;;;;;;;17.08;5.70;;;;;;;;;;4946642;29;20027;-66
2021/03/29 14:52:55;;;;;;;15.77;4.35;;;;;;;;;;4948400;28;20016;-70
2021/03/29 14:55:21;;;;;;;24.52;4.88;;;;;;;;;;4945930;29;20051;-67